sensor_id;sensor_type;location;lat;lon;timestamp;pressure;altitude;pressure_sealevel;temperature;humidity
46722;BME280;32455;43.430;23.136;2023-08-06T00:00:27;96982.69;;;19.36;100.00
46722;BME280;32455;43.430;23.136;2023-08-06T00:03:13;96982.91;;;19.48;100.00
46722;BME280;32455;43.430;23.136;2023-08-06T00:05:59;96968.88;;;19.55;100.00
46722;BME280;32455;43.430;23.136;2023-08-06T00:08:44;96971.41;;;19.51;100.00
46722;BME280;32455;43.430;23.136;2023-08-06T00:11:29;96981.28;;;19.61;100.00
46722;BME280;32455;43.430;23.136;2023-08-06T00:14:15;96991.94;;;19.71;100.00
46722;BME280;32455;43.430;23.136;2023-08-06T00:17:02;97023.22;;;19.96;100.00
46722;BME280;32455;43.430;23.136;2023-08-06T00:19:47;97002.44;;;19.87;100.00
46722;BME280;32455;43.430;23.136;2023-08-06T00:22:33;97021.16;;;20.02;100.00
46722;BME280;32455;43.430;23.136;2023-08-06T00:25:19;97023.16;;;19.88;100.00
46722;BME280;32455;43.430;23.136;2023-08-06T00:28:04;97021.25;;;19.66;100.00
46722;BME280;32455;43.430;23.136;2023-08-06T00:30:55;96996.94;;;19.78;100.00
46722;BME280;32455;43.430;23.136;2023-08-06T00:33:41;96982.31;;;19.74;100.00
46722;BME280;32455;43.430;23.136;2023-08-06T00:36:26;96959.94;;;19.86;100.00
46722;BME280;32455;43.430;23.136;2023-08-06T00:39:11;96954.44;;;19.77;100.00
46722;BME280;32455;43.430;23.136;2023-08-06T00:41:56;96937.28;;;19.54;100.00
46722;BME280;32455;43.430;23.136;2023-08-06T00:44:42;96946.34;;;19.41;100.00
46722;BME280;32455;43.430;23.136;2023-08-06T00:47:30;96981.16;;;19.30;100.00
46722;BME280;32455;43.430;23.136;2023-08-06T00:50:16;97017.56;;;18.98;100.00
46722;BME280;32455;43.430;23.136;2023-08-06T00:53:02;97023.47;;;19.27;100.00
46722;BME280;32455;43.430;23.136;2023-08-06T00:55:47;97005.16;;;19.42;100.00
46722;BME280;32455;43.430;23.136;2023-08-06T00:58:34;96978.56;;;19.84;100.00
46722;BME280;32455;43.430;23.136;2023-08-06T01:01:20;96960.16;;;19.67;100.00
46722;BME280;32455;43.430;23.136;2023-08-06T01:04:06;96924.41;;;19.46;100.00
46722;BME280;32455;43.430;23.136;2023-08-06T01:07:12;96967.75;;;19.56;100.00
46722;BME280;32455;43.430;23.136;2023-08-06T01:10:23;96970.13;;;19.49;100.00
46722;BME280;32455;43.430;23.136;2023-08-06T01:16:23;96970.66;;;19.60;100.00
46722;BME280;32455;43.430;23.136;2023-08-06T01:19:19;96944.97;;;19.52;100.00
46722;BME280;32455;43.430;23.136;2023-08-06T01:22:04;96954.75;;;19.31;100.00
46722;BME280;32455;43.430;23.136;2023-08-06T01:24:50;96944.50;;;19.14;100.00
46722;BME280;32455;43.430;23.136;2023-08-06T01:27:48;96965.53;;;19.36;100.00
46722;BME280;32455;43.430;23.136;2023-08-06T01:30:37;96956.53;;;19.13;100.00
46722;BME280;32455;43.430;23.136;2023-08-06T01:33:27;96951.47;;;19.20;100.00
46722;BME280;32455;43.430;23.136;2023-08-06T01:36:17;96973.53;;;19.18;100.00
46722;BME280;32455;43.430;23.136;2023-08-06T01:39:04;97002.50;;;19.50;100.00
46722;BME280;32455;43.430;23.136;2023-08-06T01:41:50;96976.75;;;19.79;100.00
46722;BME280;32455;43.430;23.136;2023-08-06T01:44:35;96955.00;;;19.43;100.00
46722;BME280;32455;43.430;23.136;2023-08-06T01:47:20;96930.13;;;19.36;100.00
46722;BME280;32455;43.430;23.136;2023-08-06T01:50:06;96908.69;;;18.98;100.00
46722;BME280;32455;43.430;23.136;2023-08-06T01:52:51;96891.34;;;18.94;100.00
46722;BME280;32455;43.430;23.136;2023-08-06T01:55:36;96887.03;;;19.15;100.00
46722;BME280;32455;43.430;23.136;2023-08-06T01:58:21;96890.25;;;19.17;100.00
46722;BME280;32455;43.430;23.136;2023-08-06T02:01:07;96887.66;;;19.12;100.00
46722;BME280;32455;43.430;23.136;2023-08-06T02:03:52;96899.84;;;19.37;100.00
46722;BME280;32455;43.430;23.136;2023-08-06T02:06:37;96911.59;;;19.01;100.00
46722;BME280;32455;43.430;23.136;2023-08-06T02:09:22;96910.06;;;19.32;100.00
46722;BME280;32455;43.430;23.136;2023-08-06T02:12:08;96912.09;;;19.04;100.00
46722;BME280;32455;43.430;23.136;2023-08-06T02:14:54;96910.47;;;18.80;100.00
46722;BME280;32455;43.430;23.136;2023-08-06T02:17:39;96921.63;;;18.79;100.00
46722;BME280;32455;43.430;23.136;2023-08-06T02:20:25;96912.41;;;19.02;100.00
46722;BME280;32455;43.430;23.136;2023-08-06T02:23:10;96916.59;;;19.08;100.00
46722;BME280;32455;43.430;23.136;2023-08-06T02:26:03;96920.06;;;19.00;100.00
46722;BME280;32455;43.430;23.136;2023-08-06T02:28:48;96910.47;;;19.02;100.00
46722;BME280;32455;43.430;23.136;2023-08-06T02:31:34;96914.38;;;19.10;100.00
46722;BME280;32455;43.430;23.136;2023-08-06T02:34:19;96883.66;;;19.18;100.00
46722;BME280;32455;43.430;23.136;2023-08-06T02:37:05;96900.19;;;19.22;100.00
46722;BME280;32455;43.430;23.136;2023-08-06T02:39:50;96879.91;;;19.28;100.00
46722;BME280;32455;43.430;23.136;2023-08-06T02:42:36;96889.13;;;18.96;100.00
46722;BME280;32455;43.430;23.136;2023-08-06T02:45:21;96889.69;;;19.07;100.00
46722;BME280;32455;43.430;23.136;2023-08-06T02:48:06;96901.13;;;19.17;100.00
46722;BME280;32455;43.430;23.136;2023-08-06T02:50:52;96916.28;;;19.10;100.00
46722;BME280;32455;43.430;23.136;2023-08-06T02:53:38;96910.84;;;19.10;100.00
46722;BME280;32455;43.430;23.136;2023-08-06T02:56:23;96902.19;;;19.08;100.00
46722;BME280;32455;43.430;23.136;2023-08-06T02:59:08;96894.69;;;18.91;100.00
46722;BME280;32455;43.430;23.136;2023-08-06T03:01:54;96890.69;;;18.74;100.00
46722;BME280;32455;43.430;23.136;2023-08-06T03:04:39;96895.34;;;19.10;100.00
46722;BME280;32455;43.430;23.136;2023-08-06T03:07:24;96885.78;;;19.21;100.00
46722;BME280;32455;43.430;23.136;2023-08-06T03:10:10;96878.75;;;19.20;100.00
46722;BME280;32455;43.430;23.136;2023-08-06T03:12:55;96878.94;;;19.24;100.00
46722;BME280;32455;43.430;23.136;2023-08-06T03:15:41;96906.03;;;19.29;100.00
46722;BME280;32455;43.430;23.136;2023-08-06T03:18:26;96921.69;;;19.23;100.00
46722;BME280;32455;43.430;23.136;2023-08-06T03:21:12;96915.13;;;19.47;100.00
46722;BME280;32455;43.430;23.136;2023-08-06T03:23:57;96911.53;;;19.15;100.00
46722;BME280;32455;43.430;23.136;2023-08-06T03:26:43;96888.81;;;18.97;100.00
46722;BME280;32455;43.430;23.136;2023-08-06T03:29:28;96904.41;;;19.06;100.00
46722;BME280;32455;43.430;23.136;2023-08-06T03:32:13;96900.34;;;19.17;100.00
46722;BME280;32455;43.430;23.136;2023-08-06T03:34:57;96881.00;;;19.05;100.00
46722;BME280;32455;43.430;23.136;2023-08-06T03:37:43;96894.88;;;19.17;100.00
46722;BME280;32455;43.430;23.136;2023-08-06T03:40:28;96908.81;;;19.38;100.00
46722;BME280;32455;43.430;23.136;2023-08-06T03:43:13;96906.56;;;19.17;100.00
46722;BME280;32455;43.430;23.136;2023-08-06T03:45:59;96908.81;;;19.15;100.00
46722;BME280;32455;43.430;23.136;2023-08-06T03:48:44;96897.75;;;19.12;100.00
46722;BME280;32455;43.430;23.136;2023-08-06T03:51:29;96899.66;;;18.89;100.00
46722;BME280;32455;43.430;23.136;2023-08-06T03:54:14;96926.16;;;19.19;100.00
46722;BME280;32455;43.430;23.136;2023-08-06T03:57:00;96906.97;;;19.24;100.00
46722;BME280;32455;43.430;23.136;2023-08-06T03:59:45;96903.19;;;19.34;100.00
46722;BME280;32455;43.430;23.136;2023-08-06T04:02:30;96900.59;;;19.29;100.00
46722;BME280;32455;43.430;23.136;2023-08-06T04:05:16;96894.06;;;19.39;100.00
46722;BME280;32455;43.430;23.136;2023-08-06T04:08:01;96888.63;;;19.39;100.00
46722;BME280;32455;43.430;23.136;2023-08-06T04:10:50;96881.72;;;19.33;100.00
46722;BME280;32455;43.430;23.136;2023-08-06T04:13:36;96856.91;;;19.12;100.00
46722;BME280;32455;43.430;23.136;2023-08-06T04:16:21;96871.41;;;19.30;100.00
46722;BME280;32455;43.430;23.136;2023-08-06T04:19:06;96870.19;;;19.13;100.00
46722;BME280;32455;43.430;23.136;2023-08-06T04:21:52;96886.53;;;19.36;100.00
46722;BME280;32455;43.430;23.136;2023-08-06T04:24:37;96882.69;;;19.37;100.00
46722;BME280;32455;43.430;23.136;2023-08-06T04:27:23;96893.13;;;19.43;100.00
46722;BME280;32455;43.430;23.136;2023-08-06T04:30:09;96866.41;;;19.45;100.00
46722;BME280;32455;43.430;23.136;2023-08-06T04:32:59;96861.00;;;19.54;100.00
46722;BME280;32455;43.430;23.136;2023-08-06T04:35:44;96864.78;;;19.67;100.00
46722;BME280;32455;43.430;23.136;2023-08-06T04:38:29;96849.38;;;19.62;100.00
46722;BME280;32455;43.430;23.136;2023-08-06T04:41:15;96843.22;;;19.57;100.00
46722;BME280;32455;43.430;23.136;2023-08-06T04:44:00;96862.88;;;19.45;100.00
46722;BME280;32455;43.430;23.136;2023-08-06T04:46:45;96868.00;;;19.46;100.00
46722;BME280;32455;43.430;23.136;2023-08-06T04:49:30;96868.38;;;19.85;100.00
46722;BME280;32455;43.430;23.136;2023-08-06T04:52:15;96873.41;;;19.91;100.00
46722;BME280;32455;43.430;23.136;2023-08-06T04:55:01;96862.97;;;19.93;100.00
46722;BME280;32455;43.430;23.136;2023-08-06T04:57:46;96864.53;;;19.86;100.00
46722;BME280;32455;43.430;23.136;2023-08-06T05:00:32;96871.13;;;19.85;100.00
46722;BME280;32455;43.430;23.136;2023-08-06T05:03:18;96860.28;;;19.62;100.00
46722;BME280;32455;43.430;23.136;2023-08-06T05:06:03;96877.47;;;19.71;100.00
46722;BME280;32455;43.430;23.136;2023-08-06T05:08:49;96886.81;;;19.79;100.00
46722;BME280;32455;43.430;23.136;2023-08-06T05:11:34;96870.09;;;19.72;100.00
46722;BME280;32455;43.430;23.136;2023-08-06T05:14:19;96868.31;;;19.67;100.00
46722;BME280;32455;43.430;23.136;2023-08-06T05:17:05;96878.34;;;19.89;100.00
46722;BME280;32455;43.430;23.136;2023-08-06T05:19:49;96870.88;;;19.72;100.00
46722;BME280;32455;43.430;23.136;2023-08-06T05:22:35;96854.59;;;19.59;100.00
46722;BME280;32455;43.430;23.136;2023-08-06T05:25:20;96868.06;;;19.86;100.00
46722;BME280;32455;43.430;23.136;2023-08-06T05:28:06;96876.28;;;19.95;100.00
46722;BME280;32455;43.430;23.136;2023-08-06T05:30:51;96867.41;;;19.81;100.00
46722;BME280;32455;43.430;23.136;2023-08-06T05:33:36;96871.66;;;19.64;100.00
46722;BME280;32455;43.430;23.136;2023-08-06T05:36:22;96869.00;;;19.82;100.00
46722;BME280;32455;43.430;23.136;2023-08-06T05:39:07;96871.72;;;19.82;100.00
46722;BME280;32455;43.430;23.136;2023-08-06T05:41:53;96872.72;;;19.86;100.00
46722;BME280;32455;43.430;23.136;2023-08-06T05:44:40;96877.03;;;19.87;100.00
46722;BME280;32455;43.430;23.136;2023-08-06T05:47:25;96884.91;;;19.88;100.00
46722;BME280;32455;43.430;23.136;2023-08-06T05:50:11;96883.53;;;19.68;100.00
46722;BME280;32455;43.430;23.136;2023-08-06T05:52:56;96892.06;;;19.75;100.00
46722;BME280;32455;43.430;23.136;2023-08-06T05:55:42;96889.22;;;19.81;100.00
46722;BME280;32455;43.430;23.136;2023-08-06T05:58:27;96901.13;;;19.93;100.00
46722;BME280;32455;43.430;23.136;2023-08-06T06:01:13;96895.66;;;19.85;100.00
46722;BME280;32455;43.430;23.136;2023-08-06T06:03:59;96900.91;;;19.81;100.00
46722;BME280;32455;43.430;23.136;2023-08-06T06:06:44;96898.34;;;19.76;100.00
46722;BME280;32455;43.430;23.136;2023-08-06T06:09:30;96907.94;;;19.73;100.00
46722;BME280;32455;43.430;23.136;2023-08-06T06:12:15;96909.91;;;19.82;100.00
46722;BME280;32455;43.430;23.136;2023-08-06T06:15:01;96904.16;;;19.83;100.00
46722;BME280;32455;43.430;23.136;2023-08-06T06:17:46;96919.41;;;19.93;100.00
46722;BME280;32455;43.430;23.136;2023-08-06T06:20:32;96910.47;;;20.01;100.00
46722;BME280;32455;43.430;23.136;2023-08-06T06:23:18;96913.81;;;19.98;100.00
46722;BME280;32455;43.430;23.136;2023-08-06T06:26:03;96903.09;;;20.01;100.00
46722;BME280;32455;43.430;23.136;2023-08-06T06:28:48;96915.38;;;20.21;100.00
46722;BME280;32455;43.430;23.136;2023-08-06T06:31:34;96916.97;;;20.22;100.00
46722;BME280;32455;43.430;23.136;2023-08-06T06:34:19;96929.44;;;20.55;100.00
46722;BME280;32455;43.430;23.136;2023-08-06T06:37:05;96944.28;;;20.80;100.00
46722;BME280;32455;43.430;23.136;2023-08-06T06:39:50;96944.63;;;20.95;100.00
46722;BME280;32455;43.430;23.136;2023-08-06T06:42:36;96946.56;;;20.95;100.00
46722;BME280;32455;43.430;23.136;2023-08-06T06:45:21;96942.03;;;20.82;100.00
46722;BME280;32455;43.430;23.136;2023-08-06T06:48:06;96953.22;;;20.63;100.00
46722;BME280;32455;43.430;23.136;2023-08-06T06:50:52;96953.28;;;20.89;100.00
46722;BME280;32455;43.430;23.136;2023-08-06T06:53:37;96947.53;;;21.16;100.00
46722;BME280;32455;43.430;23.136;2023-08-06T06:56:21;96951.22;;;21.20;100.00
46722;BME280;32455;43.430;23.136;2023-08-06T06:59:07;96951.22;;;21.03;100.00
46722;BME280;32455;43.430;23.136;2023-08-06T07:01:53;96944.31;;;21.14;100.00
46722;BME280;32455;43.430;23.136;2023-08-06T07:04:38;96945.75;;;21.29;100.00
46722;BME280;32455;43.430;23.136;2023-08-06T07:07:24;96919.88;;;21.18;100.00
46722;BME280;32455;43.430;23.136;2023-08-06T07:10:10;96924.53;;;21.17;100.00
46722;BME280;32455;43.430;23.136;2023-08-06T07:12:56;96930.03;;;21.43;100.00
46722;BME280;32455;43.430;23.136;2023-08-06T07:15:41;96926.94;;;21.45;100.00
46722;BME280;32455;43.430;23.136;2023-08-06T07:18:26;96930.81;;;21.26;100.00
46722;BME280;32455;43.430;23.136;2023-08-06T07:21:11;96948.69;;;21.41;100.00
46722;BME280;32455;43.430;23.136;2023-08-06T07:23:56;96959.44;;;21.55;100.00
46722;BME280;32455;43.430;23.136;2023-08-06T07:26:42;96961.66;;;21.62;100.00
46722;BME280;32455;43.430;23.136;2023-08-06T07:29:27;96971.34;;;21.50;100.00
46722;BME280;32455;43.430;23.136;2023-08-06T07:32:12;96966.03;;;21.54;100.00
46722;BME280;32455;43.430;23.136;2023-08-06T07:34:58;96968.88;;;21.66;100.00
46722;BME280;32455;43.430;23.136;2023-08-06T07:37:45;96968.44;;;21.64;100.00
46722;BME280;32455;43.430;23.136;2023-08-06T07:40:30;96983.66;;;21.83;100.00
46722;BME280;32455;43.430;23.136;2023-08-06T07:43:16;96974.00;;;21.94;100.00
46722;BME280;32455;43.430;23.136;2023-08-06T07:46:01;96989.41;;;22.16;100.00
46722;BME280;32455;43.430;23.136;2023-08-06T07:48:47;96985.06;;;22.23;100.00
46722;BME280;32455;43.430;23.136;2023-08-06T07:51:32;96985.03;;;22.32;100.00
46722;BME280;32455;43.430;23.136;2023-08-06T07:54:17;96985.69;;;22.20;100.00
46722;BME280;32455;43.430;23.136;2023-08-06T07:57:03;96990.03;;;22.21;100.00
46722;BME280;32455;43.430;23.136;2023-08-06T07:59:49;96975.25;;;22.05;100.00
46722;BME280;32455;43.430;23.136;2023-08-06T08:02:34;96977.19;;;22.05;100.00
46722;BME280;32455;43.430;23.136;2023-08-06T08:05:19;96980.41;;;22.07;100.00
46722;BME280;32455;43.430;23.136;2023-08-06T08:08:05;96984.91;;;22.58;100.00
46722;BME280;32455;43.430;23.136;2023-08-06T08:10:50;96973.03;;;22.45;100.00
46722;BME280;32455;43.430;23.136;2023-08-06T08:13:35;96980.78;;;22.43;100.00
46722;BME280;32455;43.430;23.136;2023-08-06T08:16:21;96971.16;;;22.67;100.00
46722;BME280;32455;43.430;23.136;2023-08-06T08:19:06;96980.19;;;22.97;100.00
46722;BME280;32455;43.430;23.136;2023-08-06T08:21:51;96983.28;;;22.95;100.00
46722;BME280;32455;43.430;23.136;2023-08-06T08:24:37;96982.47;;;22.57;100.00
46722;BME280;32455;43.430;23.136;2023-08-06T08:27:22;96977.56;;;22.41;100.00
46722;BME280;32455;43.430;23.136;2023-08-06T08:30:07;96983.56;;;22.26;100.00
46722;BME280;32455;43.430;23.136;2023-08-06T08:32:52;96983.06;;;22.71;100.00
46722;BME280;32455;43.430;23.136;2023-08-06T08:35:37;96972.75;;;22.38;100.00
46722;BME280;32455;43.430;23.136;2023-08-06T08:38:23;96989.50;;;22.75;100.00
46722;BME280;32455;43.430;23.136;2023-08-06T08:41:10;96985.22;;;23.37;100.00
46722;BME280;32455;43.430;23.136;2023-08-06T08:43:58;96975.59;;;23.72;100.00
46722;BME280;32455;43.430;23.136;2023-08-06T08:46:45;96965.75;;;23.71;100.00
46722;BME280;32455;43.430;23.136;2023-08-06T08:49:33;96954.91;;;23.54;100.00
46722;BME280;32455;43.430;23.136;2023-08-06T08:52:21;96957.06;;;23.48;100.00
46722;BME280;32455;43.430;23.136;2023-08-06T08:55:08;96955.88;;;23.37;100.00
46722;BME280;32455;43.430;23.136;2023-08-06T08:57:53;96960.88;;;23.56;100.00
46722;BME280;32455;43.430;23.136;2023-08-06T09:00:42;96956.13;;;23.44;100.00
46722;BME280;32455;43.430;23.136;2023-08-06T09:03:27;96950.78;;;23.48;100.00
46722;BME280;32455;43.430;23.136;2023-08-06T09:06:13;96956.75;;;23.29;100.00
46722;BME280;32455;43.430;23.136;2023-08-06T09:09:30;96960.75;;;23.32;100.00
46722;BME280;32455;43.430;23.136;2023-08-06T09:12:17;96952.34;;;23.16;100.00
46722;BME280;32455;43.430;23.136;2023-08-06T09:15:02;96943.78;;;22.96;100.00
46722;BME280;32455;43.430;23.136;2023-08-06T09:17:48;96934.28;;;22.94;100.00
46722;BME280;32455;43.430;23.136;2023-08-06T09:20:34;96935.56;;;22.96;100.00
46722;BME280;32455;43.430;23.136;2023-08-06T09:23:19;96938.69;;;23.28;100.00
46722;BME280;32455;43.430;23.136;2023-08-06T09:26:04;96922.19;;;23.37;100.00
46722;BME280;32455;43.430;23.136;2023-08-06T09:28:52;96936.47;;;23.42;100.00
46722;BME280;32455;43.430;23.136;2023-08-06T09:31:50;96940.97;;;23.47;100.00
46722;BME280;32455;43.430;23.136;2023-08-06T09:34:42;96938.94;;;23.77;100.00
46722;BME280;32455;43.430;23.136;2023-08-06T09:37:35;96946.34;;;23.77;100.00
46722;BME280;32455;43.430;23.136;2023-08-06T09:40:29;96947.06;;;23.86;100.00
46722;BME280;32455;43.430;23.136;2023-08-06T09:43:15;96930.44;;;24.15;100.00
46722;BME280;32455;43.430;23.136;2023-08-06T09:46:10;96929.72;;;24.06;100.00
46722;BME280;32455;43.430;23.136;2023-08-06T09:48:58;96928.91;;;24.06;100.00
46722;BME280;32455;43.430;23.136;2023-08-06T09:51:44;96927.53;;;23.87;100.00
46722;BME280;32455;43.430;23.136;2023-08-06T09:54:30;96934.31;;;24.14;100.00
46722;BME280;32455;43.430;23.136;2023-08-06T09:57:18;96936.09;;;23.98;100.00
46722;BME280;32455;43.430;23.136;2023-08-06T10:00:03;96945.44;;;23.72;100.00
46722;BME280;32455;43.430;23.136;2023-08-06T10:02:50;96951.50;;;23.57;100.00
46722;BME280;32455;43.430;23.136;2023-08-06T10:05:39;96933.34;;;23.32;100.00
46722;BME280;32455;43.430;23.136;2023-08-06T10:08:25;96949.13;;;23.56;100.00
46722;BME280;32455;43.430;23.136;2023-08-06T10:11:10;96946.16;;;23.61;100.00
46722;BME280;32455;43.430;23.136;2023-08-06T10:14:02;96930.31;;;23.66;100.00
46722;BME280;32455;43.430;23.136;2023-08-06T10:16:50;96956.94;;;23.66;100.00
46722;BME280;32455;43.430;23.136;2023-08-06T10:19:36;96950.03;;;23.60;100.00
46722;BME280;32455;43.430;23.136;2023-08-06T10:22:22;96941.47;;;23.61;100.00
46722;BME280;32455;43.430;23.136;2023-08-06T10:25:08;96942.16;;;23.37;100.00
46722;BME280;32455;43.430;23.136;2023-08-06T10:27:54;96953.59;;;23.60;100.00
46722;BME280;32455;43.430;23.136;2023-08-06T10:30:45;96930.44;;;23.49;100.00
46722;BME280;32455;43.430;23.136;2023-08-06T10:33:45;96938.09;;;23.77;100.00
46722;BME280;32455;43.430;23.136;2023-08-06T10:36:30;96934.06;;;24.19;100.00
46722;BME280;32455;43.430;23.136;2023-08-06T10:39:18;96919.44;;;24.28;100.00
46722;BME280;32455;43.430;23.136;2023-08-06T10:42:03;96944.19;;;24.64;100.00
46722;BME280;32455;43.430;23.136;2023-08-06T10:45:20;96932.28;;;24.85;100.00
46722;BME280;32455;43.430;23.136;2023-08-06T10:48:06;96930.47;;;24.77;100.00
46722;BME280;32455;43.430;23.136;2023-08-06T10:50:51;96941.56;;;24.43;100.00
46722;BME280;32455;43.430;23.136;2023-08-06T10:53:36;96937.53;;;24.16;100.00
46722;BME280;32455;43.430;23.136;2023-08-06T10:56:23;96958.31;;;24.05;100.00
46722;BME280;32455;43.430;23.136;2023-08-06T10:59:10;96967.75;;;23.62;100.00
46722;BME280;32455;43.430;23.136;2023-08-06T11:02:01;96974.13;;;23.54;100.00
46722;BME280;32455;43.430;23.136;2023-08-06T11:04:48;96993.03;;;23.05;100.00
46722;BME280;32455;43.430;23.136;2023-08-06T11:07:34;96997.38;;;22.77;100.00
46722;BME280;32455;43.430;23.136;2023-08-06T11:10:19;96997.19;;;22.43;100.00
46722;BME280;32455;43.430;23.136;2023-08-06T11:13:05;97000.06;;;21.91;100.00
46722;BME280;32455;43.430;23.136;2023-08-06T11:15:52;96998.66;;;21.77;100.00
46722;BME280;32455;43.430;23.136;2023-08-06T11:18:41;96986.09;;;21.84;100.00
46722;BME280;32455;43.430;23.136;2023-08-06T11:21:27;96987.91;;;21.63;100.00
46722;BME280;32455;43.430;23.136;2023-08-06T11:24:14;96975.63;;;21.78;100.00
46722;BME280;32455;43.430;23.136;2023-08-06T11:26:59;96977.97;;;22.14;100.00
46722;BME280;32455;43.430;23.136;2023-08-06T11:29:45;96967.16;;;22.26;100.00
46722;BME280;32455;43.430;23.136;2023-08-06T11:32:30;96963.59;;;22.34;100.00
46722;BME280;32455;43.430;23.136;2023-08-06T11:35:16;96978.09;;;22.64;100.00
46722;BME280;32455;43.430;23.136;2023-08-06T11:38:02;96962.06;;;22.54;100.00
46722;BME280;32455;43.430;23.136;2023-08-06T11:40:50;96985.28;;;22.78;100.00
46722;BME280;32455;43.430;23.136;2023-08-06T11:43:36;96989.91;;;23.36;100.00
46722;BME280;32455;43.430;23.136;2023-08-06T11:46:20;96988.31;;;23.56;100.00
46722;BME280;32455;43.430;23.136;2023-08-06T11:49:07;96985.03;;;23.42;100.00
46722;BME280;32455;43.430;23.136;2023-08-06T11:51:53;96968.03;;;23.48;100.00
46722;BME280;32455;43.430;23.136;2023-08-06T11:54:38;96960.88;;;23.56;100.00
46722;BME280;32455;43.430;23.136;2023-08-06T11:57:23;96923.06;;;23.62;100.00
46722;BME280;32455;43.430;23.136;2023-08-06T12:00:12;96940.19;;;23.80;100.00
46722;BME280;32455;43.430;23.136;2023-08-06T12:02:58;96930.16;;;23.96;100.00
46722;BME280;32455;43.430;23.136;2023-08-06T12:05:44;96930.50;;;24.07;100.00
46722;BME280;32455;43.430;23.136;2023-08-06T12:08:31;96941.88;;;24.17;100.00
46722;BME280;32455;43.430;23.136;2023-08-06T12:11:16;96931.44;;;24.23;100.00
46722;BME280;32455;43.430;23.136;2023-08-06T12:14:02;96940.78;;;24.43;100.00
46722;BME280;32455;43.430;23.136;2023-08-06T12:16:47;96936.72;;;24.28;100.00
46722;BME280;32455;43.430;23.136;2023-08-06T12:19:32;96943.47;;;24.18;100.00
46722;BME280;32455;43.430;23.136;2023-08-06T12:22:18;96929.78;;;24.43;100.00
46722;BME280;32455;43.430;23.136;2023-08-06T12:25:05;96911.22;;;24.28;100.00
46722;BME280;32455;43.430;23.136;2023-08-06T12:27:53;96927.38;;;23.84;100.00
46722;BME280;32455;43.430;23.136;2023-08-06T12:30:39;96932.72;;;24.13;100.00
46722;BME280;32455;43.430;23.136;2023-08-06T12:33:27;96931.09;;;24.00;100.00
46722;BME280;32455;43.430;23.136;2023-08-06T12:36:13;96928.16;;;24.30;100.00
46722;BME280;32455;43.430;23.136;2023-08-06T12:38:58;96927.56;;;24.36;100.00
46722;BME280;32455;43.430;23.136;2023-08-06T12:41:44;96926.44;;;24.74;100.00
46722;BME280;32455;43.430;23.136;2023-08-06T12:44:31;96908.00;;;24.74;100.00
46722;BME280;32455;43.430;23.136;2023-08-06T12:47:17;96916.59;;;24.73;100.00
46722;BME280;32455;43.430;23.136;2023-08-06T12:50:03;96937.09;;;24.76;100.00
46722;BME280;32455;43.430;23.136;2023-08-06T12:52:49;96922.47;;;24.71;100.00
46722;BME280;32455;43.430;23.136;2023-08-06T12:55:34;96909.38;;;24.32;100.00
46722;BME280;32455;43.430;23.136;2023-08-06T12:58:19;96915.44;;;24.01;100.00
46722;BME280;32455;43.430;23.136;2023-08-06T13:01:04;96910.84;;;23.92;100.00
46722;BME280;32455;43.430;23.136;2023-08-06T13:03:50;96919.31;;;23.99;100.00
46722;BME280;32455;43.430;23.136;2023-08-06T13:06:35;96918.38;;;23.83;100.00
46722;BME280;32455;43.430;23.136;2023-08-06T13:09:22;96909.00;;;23.51;100.00
46722;BME280;32455;43.430;23.136;2023-08-06T13:12:07;96919.13;;;23.71;100.00
46722;BME280;32455;43.430;23.136;2023-08-06T13:14:52;96910.97;;;23.63;100.00
46722;BME280;32455;43.430;23.136;2023-08-06T13:17:38;96913.56;;;23.47;100.00
46722;BME280;32455;43.430;23.136;2023-08-06T13:20:23;96921.97;;;23.42;100.00
46722;BME280;32455;43.430;23.136;2023-08-06T13:23:09;96919.06;;;23.26;100.00
46722;BME280;32455;43.430;23.136;2023-08-06T13:25:54;96925.13;;;23.11;100.00
46722;BME280;32455;43.430;23.136;2023-08-06T13:28:40;96935.03;;;22.73;100.00
46722;BME280;32455;43.430;23.136;2023-08-06T13:31:26;96938.19;;;22.84;100.00
46722;BME280;32455;43.430;23.136;2023-08-06T13:34:12;96953.69;;;22.50;100.00
46722;BME280;32455;43.430;23.136;2023-08-06T13:36:58;96943.22;;;22.53;100.00
46722;BME280;32455;43.430;23.136;2023-08-06T13:39:43;96950.00;;;22.46;100.00
46722;BME280;32455;43.430;23.136;2023-08-06T13:42:29;96959.22;;;22.42;100.00
46722;BME280;32455;43.430;23.136;2023-08-06T13:45:14;96954.06;;;22.40;100.00
46722;BME280;32455;43.430;23.136;2023-08-06T13:47:58;96962.81;;;22.25;100.00
46722;BME280;32455;43.430;23.136;2023-08-06T13:50:43;96953.19;;;22.10;100.00
46722;BME280;32455;43.430;23.136;2023-08-06T13:53:28;96944.03;;;22.15;100.00
46722;BME280;32455;43.430;23.136;2023-08-06T13:56:14;96942.75;;;22.04;100.00
46722;BME280;32455;43.430;23.136;2023-08-06T13:59:02;96956.06;;;22.22;100.00
46722;BME280;32455;43.430;23.136;2023-08-06T14:01:47;96955.22;;;22.31;100.00
46722;BME280;32455;43.430;23.136;2023-08-06T14:04:33;96949.59;;;22.36;100.00
46722;BME280;32455;43.430;23.136;2023-08-06T14:07:21;96942.19;;;22.95;100.00
46722;BME280;32455;43.430;23.136;2023-08-06T14:10:07;96932.22;;;23.12;100.00
46722;BME280;32455;43.430;23.136;2023-08-06T14:12:54;96904.81;;;23.12;100.00
46722;BME280;32455;43.430;23.136;2023-08-06T14:15:40;96922.47;;;23.89;100.00
46722;BME280;32455;43.430;23.136;2023-08-06T14:18:25;96916.03;;;24.31;100.00
46722;BME280;32455;43.430;23.136;2023-08-06T14:21:11;96912.16;;;24.68;100.00